sensor_id;sensor_type;location;lat;lon;timestamp;P1;durP1;ratioP1;P2;durP2;ratioP2
14187;SDS011;7175;51.978;5.330;2023-09-18T00:00:48;139.83;;;128.53;;
14187;SDS011;7175;51.978;5.330;2023-09-18T00:03:17;139.17;;;128.00;;
14187;SDS011;7175;51.978;5.330;2023-09-18T00:05:46;134.13;;;123.27;;
14187;SDS011;7175;51.978;5.330;2023-09-18T00:08:15;132.50;;;121.80;;
14187;SDS011;7175;51.978;5.330;2023-09-18T00:10:45;136.60;;;125.37;;
14187;SDS011;7175;51.978;5.330;2023-09-18T00:13:15;136.23;;;125.20;;
14187;SDS011;7175;51.978;5.330;2023-09-18T00:15:44;133.37;;;122.47;;
14187;SDS011;7175;51.978;5.330;2023-09-18T00:18:15;128.00;;;117.70;;
14187;SDS011;7175;51.978;5.330;2023-09-18T00:20:44;140.40;;;129.37;;
14187;SDS011;7175;51.978;5.330;2023-09-18T00:23:14;135.33;;;124.50;;
14187;SDS011;7175;51.978;5.330;2023-09-18T00:25:42;130.70;;;120.10;;
14187;SDS011;7175;51.978;5.330;2023-09-18T00:28:13;131.80;;;120.90;;
14187;SDS011;7175;51.978;5.330;2023-09-18T00:30:42;131.13;;;120.47;;
14187;SDS011;7175;51.978;5.330;2023-09-18T00:33:16;132.77;;;121.57;;
14187;SDS011;7175;51.978;5.330;2023-09-18T00:35:46;132.50;;;121.80;;
14187;SDS011;7175;51.978;5.330;2023-09-18T00:38:14;132.63;;;121.93;;
14187;SDS011;7175;51.978;5.330;2023-09-18T00:40:43;129.57;;;118.90;;
14187;SDS011;7175;51.978;5.330;2023-09-18T00:43:11;132.53;;;121.87;;
14187;SDS011;7175;51.978;5.330;2023-09-18T00:45:39;132.97;;;122.20;;
14187;SDS011;7175;51.978;5.330;2023-09-18T00:48:13;125.43;;;115.50;;
14187;SDS011;7175;51.978;5.330;2023-09-18T00:50:43;130.17;;;119.77;;
14187;SDS011;7175;51.978;5.330;2023-09-18T00:53:12;126.07;;;115.97;;
14187;SDS011;7175;51.978;5.330;2023-09-18T00:55:44;128.87;;;118.57;;
14187;SDS011;7175;51.978;5.330;2023-09-18T00:58:13;132.47;;;121.80;;
14187;SDS011;7175;51.978;5.330;2023-09-18T01:00:43;130.53;;;120.33;;
14187;SDS011;7175;51.978;5.330;2023-09-18T01:03:13;130.20;;;120.00;;
14187;SDS011;7175;51.978;5.330;2023-09-18T01:05:43;132.97;;;122.37;;
14187;SDS011;7175;51.978;5.330;2023-09-18T01:08:11;127.23;;;117.30;;
14187;SDS011;7175;51.978;5.330;2023-09-18T01:10:40;124.90;;;115.27;;
14187;SDS011;7175;51.978;5.330;2023-09-18T01:13:17;125.20;;;115.40;;
14187;SDS011;7175;51.978;5.330;2023-09-18T01:15:52;127.53;;;117.47;;
14187;SDS011;7175;51.978;5.330;2023-09-18T01:18:25;125.27;;;115.57;;
14187;SDS011;7175;51.978;5.330;2023-09-18T01:20:53;125.50;;;115.90;;
14187;SDS011;7175;51.978;5.330;2023-09-18T01:23:23;126.23;;;116.40;;
14187;SDS011;7175;51.978;5.330;2023-09-18T01:25:51;127.33;;;117.50;;
14187;SDS011;7175;51.978;5.330;2023-09-18T01:28:19;127.83;;;118.13;;
14187;SDS011;7175;51.978;5.330;2023-09-18T01:30:47;123.20;;;113.90;;
14187;SDS011;7175;51.978;5.330;2023-09-18T01:33:15;124.63;;;115.10;;
14187;SDS011;7175;51.978;5.330;2023-09-18T01:35:44;119.17;;;110.00;;
14187;SDS011;7175;51.978;5.330;2023-09-18T01:38:13;125.57;;;115.87;;
14187;SDS011;7175;51.978;5.330;2023-09-18T01:40:43;129.43;;;119.33;;
14187;SDS011;7175;51.978;5.330;2023-09-18T01:43:11;129.17;;;119.07;;
14187;SDS011;7175;51.978;5.330;2023-09-18T01:45:40;130.20;;;119.60;;
14187;SDS011;7175;51.978;5.330;2023-09-18T01:48:09;129.63;;;119.40;;
14187;SDS011;7175;51.978;5.330;2023-09-18T01:50:37;128.17;;;118.07;;
14187;SDS011;7175;51.978;5.330;2023-09-18T01:53:06;130.17;;;120.03;;
14187;SDS011;7175;51.978;5.330;2023-09-18T01:55:35;129.10;;;119.03;;
14187;SDS011;7175;51.978;5.330;2023-09-18T01:58:04;128.83;;;118.73;;
14187;SDS011;7175;51.978;5.330;2023-09-18T02:00:33;123.73;;;114.13;;
14187;SDS011;7175;51.978;5.330;2023-09-18T02:03:02;128.20;;;118.30;;
14187;SDS011;7175;51.978;5.330;2023-09-18T02:05:50;126.83;;;116.90;;
14187;SDS011;7175;51.978;5.330;2023-09-18T02:08:19;126.17;;;116.40;;
14187;SDS011;7175;51.978;5.330;2023-09-18T02:10:47;125.30;;;115.57;;
14187;SDS011;7175;51.978;5.330;2023-09-18T02:13:16;130.27;;;120.00;;
14187;SDS011;7175;51.978;5.330;2023-09-18T02:15:45;126.23;;;116.33;;
14187;SDS011;7175;51.978;5.330;2023-09-18T02:18:13;126.00;;;116.30;;
14187;SDS011;7175;51.978;5.330;2023-09-18T02:20:42;128.87;;;118.93;;
14187;SDS011;7175;51.978;5.330;2023-09-18T02:23:14;128.83;;;118.90;;
14187;SDS011;7175;51.978;5.330;2023-09-18T02:25:42;126.17;;;116.47;;
14187;SDS011;7175;51.978;5.330;2023-09-18T02:28:10;128.93;;;118.90;;
14187;SDS011;7175;51.978;5.330;2023-09-18T02:30:39;128.27;;;118.43;;
14187;SDS011;7175;51.978;5.330;2023-09-18T02:33:07;130.07;;;119.83;;
14187;SDS011;7175;51.978;5.330;2023-09-18T02:35:36;130.77;;;120.53;;
14187;SDS011;7175;51.978;5.330;2023-09-18T02:38:04;132.80;;;122.40;;
14187;SDS011;7175;51.978;5.330;2023-09-18T02:40:32;130.80;;;120.50;;
14187;SDS011;7175;51.978;5.330;2023-09-18T02:43:00;131.13;;;120.90;;
14187;SDS011;7175;51.978;5.330;2023-09-18T02:45:28;132.07;;;121.70;;
14187;SDS011;7175;51.978;5.330;2023-09-18T02:47:57;133.93;;;123.20;;
14187;SDS011;7175;51.978;5.330;2023-09-18T02:50:26;133.77;;;122.93;;
14187;SDS011;7175;51.978;5.330;2023-09-18T02:52:54;131.17;;;120.87;;
14187;SDS011;7175;51.978;5.330;2023-09-18T02:55:22;133.80;;;123.10;;
14187;SDS011;7175;51.978;5.330;2023-09-18T02:57:50;132.60;;;122.00;;
14187;SDS011;7175;51.978;5.330;2023-09-18T03:00:18;130.20;;;119.97;;
14187;SDS011;7175;51.978;5.330;2023-09-18T03:03:08;132.33;;;121.87;;
14187;SDS011;7175;51.978;5.330;2023-09-18T03:05:36;132.43;;;121.87;;
14187;SDS011;7175;51.978;5.330;2023-09-18T03:08:05;129.27;;;119.20;;
14187;SDS011;7175;51.978;5.330;2023-09-18T03:10:33;132.90;;;122.40;;
14187;SDS011;7175;51.978;5.330;2023-09-18T03:13:02;130.40;;;120.23;;
14187;SDS011;7175;51.978;5.330;2023-09-18T03:15:31;130.80;;;120.57;;
14187;SDS011;7175;51.978;5.330;2023-09-18T03:17:59;131.90;;;121.70;;
14187;SDS011;7175;51.978;5.330;2023-09-18T03:20:30;136.27;;;125.57;;
14187;SDS011;7175;51.978;5.330;2023-09-18T03:22:59;131.97;;;121.47;;
14187;SDS011;7175;51.978;5.330;2023-09-18T03:25:28;130.70;;;120.30;;
14187;SDS011;7175;51.978;5.330;2023-09-18T03:28:16;127.03;;;116.97;;
14187;SDS011;7175;51.978;5.330;2023-09-18T03:30:44;126.93;;;116.80;;
14187;SDS011;7175;51.978;5.330;2023-09-18T03:33:12;127.60;;;117.40;;
14187;SDS011;7175;51.978;5.330;2023-09-18T03:35:49;130.83;;;120.60;;
14187;SDS011;7175;51.978;5.330;2023-09-18T03:38:17;133.67;;;123.27;;
14187;SDS011;7175;51.978;5.330;2023-09-18T03:40:46;137.73;;;127.03;;
14187;SDS011;7175;51.978;5.330;2023-09-18T03:43:14;139.23;;;128.47;;
14187;SDS011;7175;51.978;5.330;2023-09-18T03:45:42;139.90;;;129.03;;
14187;SDS011;7175;51.978;5.330;2023-09-18T03:48:11;132.43;;;122.00;;
14187;SDS011;7175;51.978;5.330;2023-09-18T03:50:39;135.77;;;125.47;;
14187;SDS011;7175;51.978;5.330;2023-09-18T03:53:09;135.97;;;125.47;;
14187;SDS011;7175;51.978;5.330;2023-09-18T03:55:38;136.53;;;125.90;;
14187;SDS011;7175;51.978;5.330;2023-09-18T03:58:06;128.30;;;118.20;;
14187;SDS011;7175;51.978;5.330;2023-09-18T04:00:34;125.73;;;115.87;;
14187;SDS011;7175;51.978;5.330;2023-09-18T04:03:03;130.23;;;120.03;;
14187;SDS011;7175;51.978;5.330;2023-09-18T04:05:31;127.90;;;117.90;;
14187;SDS011;7175;51.978;5.330;2023-09-18T04:08:00;129.10;;;119.00;;
14187;SDS011;7175;51.978;5.330;2023-09-18T04:10:29;129.37;;;119.17;;
14187;SDS011;7175;51.978;5.330;2023-09-18T04:12:59;132.37;;;121.87;;
14187;SDS011;7175;51.978;5.330;2023-09-18T04:15:27;129.37;;;119.27;;
14187;SDS011;7175;51.978;5.330;2023-09-18T04:17:56;127.80;;;117.67;;
14187;SDS011;7175;51.978;5.330;2023-09-18T04:20:24;129.17;;;119.17;;
14187;SDS011;7175;51.978;5.330;2023-09-18T04:25:47;130.90;;;120.67;;
14187;SDS011;7175;51.978;5.330;2023-09-18T04:28:17;126.60;;;116.27;;
14187;SDS011;7175;51.978;5.330;2023-09-18T04:30:46;126.17;;;115.67;;
14187;SDS011;7175;51.978;5.330;2023-09-18T04:33:14;133.43;;;122.73;;
14187;SDS011;7175;51.978;5.330;2023-09-18T04:35:43;132.57;;;121.87;;
14187;SDS011;7175;51.978;5.330;2023-09-18T04:38:11;134.40;;;124.00;;
14187;SDS011;7175;51.978;5.330;2023-09-18T04:40:41;130.10;;;120.00;;
14187;SDS011;7175;51.978;5.330;2023-09-18T04:43:11;127.20;;;117.50;;
14187;SDS011;7175;51.978;5.330;2023-09-18T04:45:39;126.17;;;116.37;;
14187;SDS011;7175;51.978;5.330;2023-09-18T04:48:09;126.13;;;116.23;;
14187;SDS011;7175;51.978;5.330;2023-09-18T04:50:37;118.17;;;108.40;;
14187;SDS011;7175;51.978;5.330;2023-09-18T04:53:05;115.60;;;106.17;;
14187;SDS011;7175;51.978;5.330;2023-09-18T04:55:35;120.07;;;110.43;;
14187;SDS011;7175;51.978;5.330;2023-09-18T04:58:04;121.40;;;111.73;;
14187;SDS011;7175;51.978;5.330;2023-09-18T05:00:34;118.93;;;109.53;;
14187;SDS011;7175;51.978;5.330;2023-09-18T05:03:03;125.67;;;115.77;;
14187;SDS011;7175;51.978;5.330;2023-09-18T05:05:32;126.47;;;116.50;;
14187;SDS011;7175;51.978;5.330;2023-09-18T05:08:01;133.63;;;123.23;;
14187;SDS011;7175;51.978;5.330;2023-09-18T05:10:31;130.40;;;120.33;;
14187;SDS011;7175;51.978;5.330;2023-09-18T05:12:59;127.47;;;117.53;;
14187;SDS011;7175;51.978;5.330;2023-09-18T05:15:27;114.77;;;105.53;;
14187;SDS011;7175;51.978;5.330;2023-09-18T05:17:58;114.93;;;105.60;;
14187;SDS011;7175;51.978;5.330;2023-09-18T05:20:27;115.57;;;106.37;;
14187;SDS011;7175;51.978;5.330;2023-09-18T05:22:58;115.43;;;106.03;;
14187;SDS011;7175;51.978;5.330;2023-09-18T05:25:28;116.50;;;106.80;;
14187;SDS011;7175;51.978;5.330;2023-09-18T05:27:59;121.63;;;111.50;;
14187;SDS011;7175;51.978;5.330;2023-09-18T05:30:31;123.70;;;113.33;;
14187;SDS011;7175;51.978;5.330;2023-09-18T05:33:02;123.37;;;112.83;;
14187;SDS011;7175;51.978;5.330;2023-09-18T05:35:32;122.70;;;111.90;;
14187;SDS011;7175;51.978;5.330;2023-09-18T05:38:00;124.37;;;113.53;;
14187;SDS011;7175;51.978;5.330;2023-09-18T05:40:29;122.87;;;111.97;;
14187;SDS011;7175;51.978;5.330;2023-09-18T05:42:57;128.73;;;117.63;;
14187;SDS011;7175;51.978;5.330;2023-09-18T05:45:25;129.77;;;118.73;;
14187;SDS011;7175;51.978;5.330;2023-09-18T05:47:54;126.93;;;115.43;;
14187;SDS011;7175;51.978;5.330;2023-09-18T05:50:32;138.37;;;126.50;;
14187;SDS011;7175;51.978;5.330;2023-09-18T05:53:02;143.30;;;131.10;;
14187;SDS011;7175;51.978;5.330;2023-09-18T05:55:31;142.40;;;130.50;;
14187;SDS011;7175;51.978;5.330;2023-09-18T05:58:00;150.67;;;138.27;;
14187;SDS011;7175;51.978;5.330;2023-09-18T06:00:30;140.20;;;128.30;;
14187;SDS011;7175;51.978;5.330;2023-09-18T06:02:58;145.43;;;133.20;;
14187;SDS011;7175;51.978;5.330;2023-09-18T06:05:27;142.07;;;130.13;;
14187;SDS011;7175;51.978;5.330;2023-09-18T06:07:59;140.07;;;128.10;;
14187;SDS011;7175;51.978;5.330;2023-09-18T06:10:27;139.53;;;127.67;;
14187;SDS011;7175;51.978;5.330;2023-09-18T06:12:55;140.00;;;128.20;;
14187;SDS011;7175;51.978;5.330;2023-09-18T06:15:25;138.70;;;127.00;;
14187;SDS011;7175;51.978;5.330;2023-09-18T06:17:53;140.33;;;128.43;;
14187;SDS011;7175;51.978;5.330;2023-09-18T06:20:21;141.17;;;129.07;;
14187;SDS011;7175;51.978;5.330;2023-09-18T06:22:49;130.57;;;118.97;;
14187;SDS011;7175;51.978;5.330;2023-09-18T06:25:19;139.33;;;127.37;;
14187;SDS011;7175;51.978;5.330;2023-09-18T06:27:47;139.70;;;127.50;;
14187;SDS011;7175;51.978;5.330;2023-09-18T06:30:15;130.13;;;118.23;;
14187;SDS011;7175;51.978;5.330;2023-09-18T06:32:43;135.70;;;123.40;;
14187;SDS011;7175;51.978;5.330;2023-09-18T06:35:12;138.50;;;126.10;;
14187;SDS011;7175;51.978;5.330;2023-09-18T06:37:41;131.30;;;119.40;;
14187;SDS011;7175;51.978;5.330;2023-09-18T06:40:09;134.60;;;122.53;;
14187;SDS011;7175;51.978;5.330;2023-09-18T06:42:38;131.80;;;119.67;;
14187;SDS011;7175;51.978;5.330;2023-09-18T06:45:07;130.13;;;118.13;;
14187;SDS011;7175;51.978;5.330;2023-09-18T06:47:35;132.17;;;120.07;;
14187;SDS011;7175;51.978;5.330;2023-09-18T06:50:04;140.90;;;128.60;;
14187;SDS011;7175;51.978;5.330;2023-09-18T06:52:33;142.17;;;130.23;;
14187;SDS011;7175;51.978;5.330;2023-09-18T06:55:01;141.73;;;130.03;;
14187;SDS011;7175;51.978;5.330;2023-09-18T06:57:29;136.23;;;124.83;;
14187;SDS011;7175;51.978;5.330;2023-09-18T06:59:59;134.13;;;122.90;;
14187;SDS011;7175;51.978;5.330;2023-09-18T07:02:27;135.37;;;124.27;;
14187;SDS011;7175;51.978;5.330;2023-09-18T07:04:56;139.00;;;127.60;;
14187;SDS011;7175;51.978;5.330;2023-09-18T07:07:24;134.63;;;123.40;;
14187;SDS011;7175;51.978;5.330;2023-09-18T07:09:52;135.60;;;124.50;;
14187;SDS011;7175;51.978;5.330;2023-09-18T07:12:23;139.27;;;127.83;;
14187;SDS011;7175;51.978;5.330;2023-09-18T07:14:52;132.57;;;121.87;;
14187;SDS011;7175;51.978;5.330;2023-09-18T07:17:21;133.03;;;122.53;;
14187;SDS011;7175;51.978;5.330;2023-09-18T07:19:49;126.17;;;116.47;;
14187;SDS011;7175;51.978;5.330;2023-09-18T07:22:17;125.97;;;116.37;;
14187;SDS011;7175;51.978;5.330;2023-09-18T07:24:46;125.73;;;116.40;;
14187;SDS011;7175;51.978;5.330;2023-09-18T07:27:14;127.17;;;117.77;;
14187;SDS011;7175;51.978;5.330;2023-09-18T07:29:42;133.17;;;123.37;;
14187;SDS011;7175;51.978;5.330;2023-09-18T07:32:11;129.53;;;120.07;;
14187;SDS011;7175;51.978;5.330;2023-09-18T07:34:56;120.17;;;111.30;;
14187;SDS011;7175;51.978;5.330;2023-09-18T07:37:26;128.07;;;118.87;;
14187;SDS011;7175;51.978;5.330;2023-09-18T07:39:54;120.00;;;111.40;;
14187;SDS011;7175;51.978;5.330;2023-09-18T07:42:23;118.47;;;109.77;;
14187;SDS011;7175;51.978;5.330;2023-09-18T07:44:52;108.80;;;100.80;;
14187;SDS011;7175;51.978;5.330;2023-09-18T07:47:23;119.00;;;110.43;;
14187;SDS011;7175;51.978;5.330;2023-09-18T07:49:51;109.20;;;101.20;;
14187;SDS011;7175;51.978;5.330;2023-09-18T07:52:22;107.57;;;99.80;;
14187;SDS011;7175;51.978;5.330;2023-09-18T07:54:50;104.20;;;96.60;;
14187;SDS011;7175;51.978;5.330;2023-09-18T07:57:18;99.73;;;92.43;;
14187;SDS011;7175;51.978;5.330;2023-09-18T07:59:49;86.50;;;80.00;;
14187;SDS011;7175;51.978;5.330;2023-09-18T08:02:17;81.57;;;75.27;;
14187;SDS011;7175;51.978;5.330;2023-09-18T08:04:45;89.77;;;83.07;;
14187;SDS011;7175;51.978;5.330;2023-09-18T08:07:13;81.60;;;75.30;;
14187;SDS011;7175;51.978;5.330;2023-09-18T08:09:44;83.73;;;77.40;;
14187;SDS011;7175;51.978;5.330;2023-09-18T08:12:13;80.37;;;74.23;;
14187;SDS011;7175;51.978;5.330;2023-09-18T08:14:41;78.00;;;72.00;;
14187;SDS011;7175;51.978;5.330;2023-09-18T08:17:10;69.70;;;64.20;;
14187;SDS011;7175;51.978;5.330;2023-09-18T08:19:38;70.20;;;64.63;;
14187;SDS011;7175;51.978;5.330;2023-09-18T08:22:07;64.53;;;59.40;;
14187;SDS011;7175;51.978;5.330;2023-09-18T08:24:36;67.43;;;62.03;;
14187;SDS011;7175;51.978;5.330;2023-09-18T08:27:06;71.13;;;65.53;;
14187;SDS011;7175;51.978;5.330;2023-09-18T08:29:34;65.00;;;59.90;;
14187;SDS011;7175;51.978;5.330;2023-09-18T08:32:02;67.57;;;62.27;;
14187;SDS011;7175;51.978;5.330;2023-09-18T08:34:30;64.93;;;59.90;;
14187;SDS011;7175;51.978;5.330;2023-09-18T08:36:59;69.60;;;64.20;;
14187;SDS011;7175;51.978;5.330;2023-09-18T08:39:27;68.10;;;62.90;;
14187;SDS011;7175;51.978;5.330;2023-09-18T08:41:58;71.83;;;66.37;;
14187;SDS011;7175;51.978;5.330;2023-09-18T08:44:32;72.60;;;67.17;;
14187;SDS011;7175;51.978;5.330;2023-09-18T08:47:01;74.63;;;68.93;;
14187;SDS011;7175;51.978;5.330;2023-09-18T08:49:30;73.30;;;67.90;;
14187;SDS011;7175;51.978;5.330;2023-09-18T08:51:59;71.73;;;66.33;;
14187;SDS011;7175;51.978;5.330;2023-09-18T08:54:28;77.87;;;72.27;;
14187;SDS011;7175;51.978;5.330;2023-09-18T08:56:56;81.60;;;75.90;;
14187;SDS011;7175;51.978;5.330;2023-09-18T08:59:25;77.17;;;71.57;;
14187;SDS011;7175;51.978;5.330;2023-09-18T09:01:56;77.70;;;71.90;;
14187;SDS011;7175;51.978;5.330;2023-09-18T09:04:24;81.50;;;75.70;;
14187;SDS011;7175;51.978;5.330;2023-09-18T09:06:53;73.50;;;68.20;;
14187;SDS011;7175;51.978;5.330;2023-09-18T09:09:25;73.27;;;68.07;;
14187;SDS011;7175;51.978;5.330;2023-09-18T09:11:54;74.57;;;69.33;;
14187;SDS011;7175;51.978;5.330;2023-09-18T09:14:22;71.00;;;66.00;;
14187;SDS011;7175;51.978;5.330;2023-09-18T09:16:55;74.80;;;69.60;;
14187;SDS011;7175;51.978;5.330;2023-09-18T09:19:28;73.73;;;68.53;;
14187;SDS011;7175;51.978;5.330;2023-09-18T09:21:57;73.93;;;68.77;;
14187;SDS011;7175;51.978;5.330;2023-09-18T09:24:37;66.17;;;61.57;;
14187;SDS011;7175;51.978;5.330;2023-09-18T09:27:06;65.67;;;60.87;;
14187;SDS011;7175;51.978;5.330;2023-09-18T09:29:35;58.63;;;54.33;;
14187;SDS011;7175;51.978;5.330;2023-09-18T09:32:14;56.60;;;52.60;;
14187;SDS011;7175;51.978;5.330;2023-09-18T09:34:44;52.13;;;48.43;;
14187;SDS011;7175;51.978;5.330;2023-09-18T09:37:13;45.13;;;41.83;;
14187;SDS011;7175;51.978;5.330;2023-09-18T09:39:51;37.30;;;34.33;;
14187;SDS011;7175;51.978;5.330;2023-09-18T09:42:19;33.30;;;30.60;;
14187;SDS011;7175;51.978;5.330;2023-09-18T09:45:01;31.30;;;28.70;;
14187;SDS011;7175;51.978;5.330;2023-09-18T09:47:34;29.53;;;27.03;;
14187;SDS011;7175;51.978;5.330;2023-09-18T09:50:06;29.07;;;26.57;;
14187;SDS011;7175;51.978;5.330;2023-09-18T09:52:36;29.83;;;27.33;;
14187;SDS011;7175;51.978;5.330;2023-09-18T09:55:26;28.90;;;26.43;;
14187;SDS011;7175;51.978;5.330;2023-09-18T09:57:57;28.80;;;26.30;;
14187;SDS011;7175;51.978;5.330;2023-09-18T10:00:27;29.47;;;26.97;;
14187;SDS011;7175;51.978;5.330;2023-09-18T10:03:09;29.20;;;26.70;;
14187;SDS011;7175;51.978;5.330;2023-09-18T10:05:40;28.70;;;26.23;;
14187;SDS011;7175;51.978;5.330;2023-09-18T10:08:11;27.10;;;24.80;;
14187;SDS011;7175;51.978;5.330;2023-09-18T10:10:43;28.17;;;25.77;;
14187;SDS011;7175;51.978;5.330;2023-09-18T10:13:15;29.53;;;27.13;;
14187;SDS011;7175;51.978;5.330;2023-09-18T10:15:47;28.97;;;26.57;;
14187;SDS011;7175;51.978;5.330;2023-09-18T10:18:20;28.87;;;26.47;;
14187;SDS011;7175;51.978;5.330;2023-09-18T10:20:56;29.40;;;27.00;;
14187;SDS011;7175;51.978;5.330;2023-09-18T10:23:34;28.83;;;26.53;;
14187;SDS011;7175;51.978;5.330;2023-09-18T10:26:11;28.77;;;26.47;;
14187;SDS011;7175;51.978;5.330;2023-09-18T10:28:42;30.00;;;27.60;;
14187;SDS011;7175;51.978;5.330;2023-09-18T10:31:12;31.77;;;29.27;;
14187;SDS011;7175;51.978;5.330;2023-09-18T10:33:43;31.90;;;29.40;;
14187;SDS011;7175;51.978;5.330;2023-09-18T10:36:11;32.10;;;29.60;;
14187;SDS011;7175;51.978;5.330;2023-09-18T10:38:41;30.73;;;28.33;;
14187;SDS011;7175;51.978;5.330;2023-09-18T10:41:10;30.80;;;28.40;;
14187;SDS011;7175;51.978;5.330;2023-09-18T10:43:39;32.27;;;29.77;;
14187;SDS011;7175;51.978;5.330;2023-09-18T10:46:07;31.40;;;29.00;;
14187;SDS011;7175;51.978;5.330;2023-09-18T10:48:35;33.17;;;30.67;;
14187;SDS011;7175;51.978;5.330;2023-09-18T10:51:04;33.77;;;31.17;;
14187;SDS011;7175;51.978;5.330;2023-09-18T10:53:33;34.03;;;31.40;;
14187;SDS011;7175;51.978;5.330;2023-09-18T10:56:02;34.93;;;32.23;;
14187;SDS011;7175;51.978;5.330;2023-09-18T10:58:32;27.87;;;25.57;;
14187;SDS011;7175;51.978;5.330;2023-09-18T11:01:02;27.80;;;25.50;;
14187;SDS011;7175;51.978;5.330;2023-09-18T11:03:32;23.73;;;21.70;;
14187;SDS011;7175;51.978;5.330;2023-09-18T11:06:02;27.70;;;25.50;;
14187;SDS011;7175;51.978;5.330;2023-09-18T11:08:33;26.70;;;24.60;;
14187;SDS011;7175;51.978;5.330;2023-09-18T11:11:03;24.87;;;22.77;;
14187;SDS011;7175;51.978;5.330;2023-09-18T11:13:41;25.30;;;23.20;;
14187;SDS011;7175;51.978;5.330;2023-09-18T11:16:16;26.03;;;23.83;;
14187;SDS011;7175;51.978;5.330;2023-09-18T11:18:50;25.93;;;23.73;;
14187;SDS011;7175;51.978;5.330;2023-09-18T11:21:24;24.03;;;21.93;;
14187;SDS011;7175;51.978;5.330;2023-09-18T11:23:57;22.93;;;20.93;;
14187;SDS011;7175;51.978;5.330;2023-09-18T11:26:29;22.07;;;20.17;;
14187;SDS011;7175;51.978;5.330;2023-09-18T11:28:59;22.33;;;20.33;;
14187;SDS011;7175;51.978;5.330;2023-09-18T11:31:44;22.57;;;20.57;;
14187;SDS011;7175;51.978;5.330;2023-09-18T11:34:14;22.30;;;20.30;;
14187;SDS011;7175;51.978;5.330;2023-09-18T11:36:45;22.30;;;20.30;;
14187;SDS011;7175;51.978;5.330;2023-09-18T11:39:13;21.63;;;19.73;;
14187;SDS011;7175;51.978;5.330;2023-09-18T11:42:07;21.93;;;20.03;;
14187;SDS011;7175;51.978;5.330;2023-09-18T11:44:36;21.77;;;19.87;;
14187;SDS011;7175;51.978;5.330;2023-09-18T11:47:09;21.50;;;19.60;;
14187;SDS011;7175;51.978;5.330;2023-09-18T11:49:46;21.47;;;19.57;;
14187;SDS011;7175;51.978;5.330;2023-09-18T11:52:21;21.03;;;19.20;;
14187;SDS011;7175;51.978;5.330;2023-09-18T11:54:51;21.33;;;19.43;;
14187;SDS011;7175;51.978;5.330;2023-09-18T11:57:21;20.97;;;19.07;;
14187;SDS011;7175;51.978;5.330;2023-09-18T11:59:49;21.60;;;19.60;;
14187;SDS011;7175;51.978;5.330;2023-09-18T12:02:25;21.10;;;19.20;;
14187;SDS011;7175;51.978;5.330;2023-09-18T12:04:55;21.77;;;19.87;;
14187;SDS011;7175;51.978;5.330;2023-09-18T12:07:24;22.20;;;20.23;;
14187;SDS011;7175;51.978;5.330;2023-09-18T12:09:52;21.83;;;19.83;;
14187;SDS011;7175;51.978;5.330;2023-09-18T12:12:22;21.50;;;19.60;;
14187;SDS011;7175;51.978;5.330;2023-09-18T12:14:52;21.37;;;19.47;;
14187;SDS011;7175;51.978;5.330;2023-09-18T12:17:20;21.40;;;19.50;;
14187;SDS011;7175;51.978;5.330;2023-09-18T12:19:52;21.50;;;19.60;;
14187;SDS011;7175;51.978;5.330;2023-09-18T12:22:25;21.07;;;19.17;;
14187;SDS011;7175;51.978;5.330;2023-09-18T12:25:07;21.20;;;19.30;;
14187;SDS011;7175;51.978;5.330;2023-09-18T12:27:41;21.87;;;19.97;;
14187;SDS011;7175;51.978;5.330;2023-09-18T12:30:10;21.93;;;20.03;;
14187;SDS011;7175;51.978;5.330;2023-09-18T12:32:41;21.83;;;19.93;;
14187;SDS011;7175;51.978;5.330;2023-09-18T12:35:13;21.40;;;19.60;;
14187;SDS011;7175;51.978;5.330;2023-09-18T12:37:42;21.63;;;19.73;;
14187;SDS011;7175;51.978;5.330;2023-09-18T12:40:23;22.07;;;20.17;;
14187;SDS011;7175;51.978;5.330;2023-09-18T12:42:53;21.47;;;19.57;;
14187;SDS011;7175;51.978;5.330;2023-09-18T12:45:23;21.40;;;19.50;;
14187;SDS011;7175;51.978;5.330;2023-09-18T12:47:53;21.07;;;19.17;;
14187;SDS011;7175;51.978;5.330;2023-09-18T12:50:23;20.97;;;19.07;;
14187;SDS011;7175;51.978;5.330;2023-09-18T12:52:53;21.00;;;19.10;;
14187;SDS011;7175;51.978;5.330;2023-09-18T12:55:33;21.70;;;19.80;;
14187;SDS011;7175;51.978;5.330;2023-09-18T12:58:02;20.77;;;18.97;;
14187;SDS011;7175;51.978;5.330;2023-09-18T13:00:34;21.40;;;19.50;;
14187;SDS011;7175;51.978;5.330;2023-09-18T13:03:02;21.27;;;19.37;;
14187;SDS011;7175;51.978;5.330;2023-09-18T13:05:31;21.80;;;19.90;;
14187;SDS011;7175;51.978;5.330;2023-09-18T13:08:05;21.60;;;19.70;;
14187;SDS011;7175;51.978;5.330;2023-09-18T13:10:42;21.50;;;19.60;;
14187;SDS011;7175;51.978;5.330;2023-09-18T13:13:18;20.80;;;18.90;;
14187;SDS011;7175;51.978;5.330;2023-09-18T13:15:47;21.13;;;19.23;;
14187;SDS011;7175;51.978;5.330;2023-09-18T13:18:18;21.23;;;19.33;;
14187;SDS011;7175;51.978;5.330;2023-09-18T13:20:47;21.20;;;19.30;;
14187;SDS011;7175;51.978;5.330;2023-09-18T13:23:16;21.10;;;19.30;;
14187;SDS011;7175;51.978;5.330;2023-09-18T13:25:48;21.03;;;19.13;;
14187;SDS011;7175;51.978;5.330;2023-09-18T13:28:16;21.20;;;19.27;;
14187;SDS011;7175;51.978;5.330;2023-09-18T13:30:47;21.50;;;19.60;;
14187;SDS011;7175;51.978;5.330;2023-09-18T13:33:15;21.40;;;19.50;;
14187;SDS011;7175;51.978;5.330;2023-09-18T13:35:45;21.53;;;19.63;;
14187;SDS011;7175;51.978;5.330;2023-09-18T13:38:13;21.30;;;19.40;;
14187;SDS011;7175;51.978;5.330;2023-09-18T13:40:44;21.47;;;19.57;;
14187;SDS011;7175;51.978;5.330;2023-09-18T13:43:13;21.50;;;19.60;;
14187;SDS011;7175;51.978;5.330;2023-09-18T13:45:42;21.37;;;19.47;;
14187;SDS011;7175;51.978;5.330;2023-09-18T13:48:10;22.13;;;20.23;;
14187;SDS011;7175;51.978;5.330;2023-09-18T13:50:38;21.60;;;19.70;;
14187;SDS011;7175;51.978;5.330;2023-09-18T13:53:06;21.77;;;19.87;;
14187;SDS011;7175;51.978;5.330;2023-09-18T13:55:35;21.80;;;19.90;;
14187;SDS011;7175;51.978;5.330;2023-09-18T13:58:05;21.10;;;19.30;;
14187;SDS011;7175;51.978;5.330;2023-09-18T14:00:33;21.83;;;19.93;;
14187;SDS011;7175;51.978;5.330;2023-09-18T14:03:02;21.57;;;19.67;;
14187;SDS011;7175;51.978;5.330;2023-09-18T14:05:30;21.70;;;19.80;;
14187;SDS011;7175;51.978;5.330;2023-09-18T14:08:00;20.97;;;19.07;;
14187;SDS011;7175;51.978;5.330;2023-09-18T14:10:29;21.00;;;19.10;;
14187;SDS011;7175;51.978;5.330;2023-09-18T14:12:57;20.87;;;19.07;;
14187;SDS011;7175;51.978;5.330;2023-09-18T14:15:27;21.37;;;19.47;;
14187;SDS011;7175;51.978;5.330;2023-09-18T14:17:55;21.27;;;19.37;;
14187;SDS011;7175;51.978;5.330;2023-09-18T14:20:24;20.80;;;18.90;;
14187;SDS011;7175;51.978;5.330;2023-09-18T14:22:52;20.83;;;18.93;;
14187;SDS011;7175;51.978;5.330;2023-09-18T14:25:20;20.73;;;18.83;;
14187;SDS011;7175;51.978;5.330;2023-09-18T14:27:48;21.00;;;19.10;;
14187;SDS011;7175;51.978;5.330;2023-09-18T14:30:17;20.63;;;18.83;;
14187;SDS011;7175;51.978;5.330;2023-09-18T14:32:47;20.67;;;18.77;;
14187;SDS011;7175;51.978;5.330;2023-09-18T14:35:16;20.57;;;18.70;;
14187;SDS011;7175;51.978;5.330;2023-09-18T14:37:44;20.50;;;18.70;;
14187;SDS011;7175;51.978;5.330;2023-09-18T14:40:13;20.73;;;18.90;;